sensor_id;sensor_type;location;lat;lon;timestamp;temperature;humidity
1273;DHT22;629;48.632;10.230;2022-07-22T01:09:08;16.80;99.90
1273;DHT22;629;48.632;10.230;2022-07-22T01:11:35;16.70;99.90
1273;DHT22;629;48.632;10.230;2022-07-22T01:40:48;15.90;99.90
1273;DHT22;629;48.632;10.230;2022-07-22T01:43:15;15.80;99.90
1273;DHT22;629;48.632;10.230;2022-07-22T01:45:43;15.80;99.90
1273;DHT22;629;48.632;10.230;2022-07-22T01:48:10;15.80;99.90
1273;DHT22;629;48.632;10.230;2022-07-22T01:50:38;15.80;99.90
1273;DHT22;629;48.632;10.230;2022-07-22T01:53:05;15.80;99.90
1273;DHT22;629;48.632;10.230;2022-07-22T01:55:32;15.70;99.90
1273;DHT22;629;48.632;10.230;2022-07-22T01:58:01;15.70;99.90
1273;DHT22;629;48.632;10.230;2022-07-22T02:00:29;15.70;99.90
1273;DHT22;629;48.632;10.230;2022-07-22T02:02:56;15.70;99.90
1273;DHT22;629;48.632;10.230;2022-07-22T02:23:11;16.00;99.90
1273;DHT22;629;48.632;10.230;2022-07-22T02:59:40;15.90;99.90
1273;DHT22;629;48.632;10.230;2022-07-22T03:02:07;15.80;99.90
1273;DHT22;629;48.632;10.230;2022-07-22T03:59:07;15.40;99.90
1273;DHT22;629;48.632;10.230;2022-07-22T04:01:34;15.50;99.90
1273;DHT22;629;48.632;10.230;2022-07-22T08:11:52;26.40;82.00
1273;DHT22;629;48.632;10.230;2022-07-22T22:16:29;22.70;87.70
1273;DHT22;629;48.632;10.230;2022-07-22T22:23:30;22.70;88.20
1273;DHT22;629;48.632;10.230;2022-07-22T22:26:53;22.70;88.70
1273;DHT22;629;48.632;10.230;2022-07-22T22:39:55;22.30;92.00
1273;DHT22;629;48.632;10.230;2022-07-22T22:49:45;22.30;92.30
1273;DHT22;629;48.632;10.230;2022-07-22T23:00:03;22.50;93.40
1273;DHT22;629;48.632;10.230;2022-07-22T23:02:31;22.50;93.60
1273;DHT22;629;48.632;10.230;2022-07-22T23:04:58;22.60;94.10
1273;DHT22;629;48.632;10.230;2022-07-22T23:07:25;22.50;94.10
1273;DHT22;629;48.632;10.230;2022-07-22T23:09:52;22.40;93.30
1273;DHT22;629;48.632;10.230;2022-07-22T23:12:20;22.40;93.80
1273;DHT22;629;48.632;10.230;2022-07-22T23:14:47;22.40;94.60
1273;DHT22;629;48.632;10.230;2022-07-22T23:17:14;22.40;95.00
1273;DHT22;629;48.632;10.230;2022-07-22T23:19:41;22.30;94.10
1273;DHT22;629;48.632;10.230;2022-07-22T23:22:10;22.40;94.10
1273;DHT22;629;48.632;10.230;2022-07-22T23:24:37;22.40;95.20
1273;DHT22;629;48.632;10.230;2022-07-22T23:27:04;22.30;95.10
1273;DHT22;629;48.632;10.230;2022-07-22T23:29:32;22.30;95.00
1273;DHT22;629;48.632;10.230;2022-07-22T23:31:59;22.30;95.30
1273;DHT22;629;48.632;10.230;2022-07-22T23:37:02;22.30;94.20
1273;DHT22;629;48.632;10.230;2022-07-22T23:39:29;22.40;94.80
1273;DHT22;629;48.632;10.230;2022-07-22T23:41:56;22.40;95.20
1273;DHT22;629;48.632;10.230;2022-07-22T23:44:23;22.40;94.40
1273;DHT22;629;48.632;10.230;2022-07-22T23:46:51;22.40;94.20
1273;DHT22;629;48.632;10.230;2022-07-22T23:49:18;22.40;94.20
1273;DHT22;629;48.632;10.230;2022-07-22T23:51:45;22.50;94.90
1273;DHT22;629;48.632;10.230;2022-07-22T23:54:12;22.50;93.40
1273;DHT22;629;48.632;10.230;2022-07-22T23:56:39;22.50;92.00
1273;DHT22;629;48.632;10.230;2022-07-22T23:59:06;22.60;91.80
